COOK73 RJOC-UITT
Flight info
| Callsign | COOK73 |
|---|---|
| Flight time | N/A |
| Altitude | 38000 |
| Route | XZE B332 KANSU/K0817F380 M825 VASRO/K0820S1160 R224 YNJ W39 UGABI B451 HLD A345 TELOK/K0833F380 A810 AGINO A91 KTN R809 ATBAT G363 UNGER DCT ERMIK ERMIK4L |
| Aircraft | C25C/M-SDE2E3FGHRWXY/LB1 |
Departure
| Time | N/A |
|---|---|
| Airport | Izumo Enmusubi Airport (RJOC) |
Arrival
| Time | 2026-04-12 19:57 |
|---|---|
| Airport | Ust-Kut Airport (UITT) |
| Time | Latitude | Longitude | Altitude | Speed | Heading |
|---|---|---|---|---|---|
| 2026-04-12 16:28 | 45.06026 | 127.13029 | 38061 ft | 359 kts | 308° |
| 2026-04-12 16:28 | 45.07745 | 127.10452 | 38050 ft | 360 kts | 308° |
| 2026-04-12 16:29 | 45.11167 | 127.05249 | 38056 ft | 362 kts | 307° |
| 2026-04-12 16:29 | 45.14614 | 127.00020 | 38063 ft | 364 kts | 308° |
| 2026-04-12 16:30 | 45.18065 | 126.94769 | 38063 ft | 364 kts | 308° |
| 2026-04-12 16:30 | 45.21523 | 126.89498 | 38064 ft | 365 kts | 308° |
| 2026-04-12 16:31 | 45.24984 | 126.84215 | 38075 ft | 365 kts | 308° |
| 2026-04-12 16:31 | 45.28445 | 126.78919 | 38072 ft | 366 kts | 307° |
| 2026-04-12 16:32 | 45.31883 | 126.73648 | 38076 ft | 366 kts | 307° |
| 2026-04-12 16:32 | 45.35341 | 126.68336 | 38074 ft | 366 kts | 307° |
| 2026-04-12 16:33 | 45.38804 | 126.63008 | 38073 ft | 367 kts | 307° |
| 2026-04-12 16:33 | 45.42265 | 126.57673 | 38073 ft | 367 kts | 307° |
| 2026-04-12 16:34 | 45.45727 | 126.52323 | 38076 ft | 367 kts | 307° |
| 2026-04-12 16:34 | 45.49185 | 126.46971 | 38083 ft | 367 kts | 307° |
| 2026-04-12 16:35 | 45.52645 | 126.41605 | 38080 ft | 368 kts | 307° |
| 2026-04-12 16:35 | 45.56105 | 126.36230 | 38084 ft | 368 kts | 307° |
| 2026-04-12 16:36 | 45.59566 | 126.30839 | 38088 ft | 368 kts | 307° |
| 2026-04-12 16:36 | 45.63048 | 126.25452 | 38086 ft | 370 kts | 309° |
| 2026-04-12 16:37 | 45.66697 | 126.20334 | 38084 ft | 370 kts | 310° |
| 2026-04-12 16:37 | 45.70352 | 126.15148 | 38085 ft | 370 kts | 310° |
| 2026-04-12 16:38 | 45.74023 | 126.09958 | 38083 ft | 371 kts | 310° |
| 2026-04-12 16:38 | 45.77685 | 126.04760 | 38082 ft | 371 kts | 310° |
| 2026-04-12 16:39 | 45.81348 | 125.99556 | 38085 ft | 371 kts | 310° |
| 2026-04-12 16:39 | 45.85006 | 125.94344 | 38086 ft | 371 kts | 310° |
| 2026-04-12 16:40 | 45.88665 | 125.89121 | 38085 ft | 371 kts | 310° |
| 2026-04-12 16:40 | 45.92321 | 125.83895 | 38089 ft | 371 kts | 310° |
| 2026-04-12 16:41 | 45.95977 | 125.78656 | 38093 ft | 371 kts | 310° |
| 2026-04-12 16:41 | 45.99632 | 125.73408 | 38091 ft | 371 kts | 310° |
| 2026-04-12 16:42 | 46.03290 | 125.68148 | 38097 ft | 372 kts | 310° |
| 2026-04-12 16:42 | 46.06925 | 125.62910 | 38097 ft | 372 kts | 310° |
| 2026-04-12 16:43 | 46.14240 | 125.52336 | 38097 ft | 372 kts | 310° |
| 2026-04-12 16:44 | 46.17893 | 125.47037 | 38100 ft | 372 kts | 310° |
| 2026-04-12 16:44 | 46.21544 | 125.41734 | 38104 ft | 372 kts | 310° |
| 2026-04-12 16:45 | 46.25194 | 125.36423 | 38108 ft | 372 kts | 309° |
| 2026-04-12 16:45 | 46.28830 | 125.31148 | 38107 ft | 373 kts | 310° |
| 2026-04-12 16:46 | 46.32561 | 125.25913 | 38110 ft | 373 kts | 310° |
| 2026-04-12 16:46 | 46.36260 | 125.20633 | 38114 ft | 373 kts | 310° |
| 2026-04-12 16:47 | 46.39966 | 125.15359 | 38115 ft | 374 kts | 310° |
| 2026-04-12 16:47 | 46.43671 | 125.10067 | 38118 ft | 374 kts | 310° |
| 2026-04-12 16:48 | 46.47378 | 125.04765 | 38121 ft | 374 kts | 310° |
| 2026-04-12 16:48 | 46.51080 | 124.99459 | 38123 ft | 374 kts | 310° |
| 2026-04-12 16:49 | 46.54761 | 124.94174 | 38125 ft | 375 kts | 310° |
| 2026-04-12 16:49 | 46.58468 | 124.88839 | 38134 ft | 375 kts | 310° |
| 2026-04-12 16:50 | 46.62173 | 124.83494 | 38131 ft | 375 kts | 310° |
| 2026-04-12 16:50 | 46.65878 | 124.78142 | 38131 ft | 376 kts | 310° |
| 2026-04-12 16:51 | 46.69586 | 124.72775 | 38127 ft | 376 kts | 310° |
| 2026-04-12 16:51 | 46.73292 | 124.67395 | 38137 ft | 376 kts | 310° |
| 2026-04-12 16:52 | 46.77000 | 124.62004 | 38137 ft | 376 kts | 310° |
| 2026-04-12 16:52 | 46.80707 | 124.56606 | 38138 ft | 377 kts | 310° |
| 2026-04-12 16:53 | 46.84419 | 124.51187 | 38144 ft | 377 kts | 310° |
| 2026-04-12 16:53 | 46.88102 | 124.45798 | 38140 ft | 378 kts | 310° |
| 2026-04-12 16:54 | 46.91822 | 124.40343 | 38140 ft | 378 kts | 310° |
| 2026-04-12 16:54 | 46.95536 | 124.34887 | 38146 ft | 379 kts | 310° |
| 2026-04-12 16:55 | 46.99252 | 124.29417 | 38150 ft | 379 kts | 310° |
| 2026-04-12 16:55 | 47.02971 | 124.23930 | 38148 ft | 379 kts | 310° |
| 2026-04-12 16:56 | 47.06694 | 124.18429 | 38155 ft | 380 kts | 310° |
| 2026-04-12 16:56 | 47.10407 | 124.12927 | 38149 ft | 380 kts | 310° |
| 2026-04-12 16:57 | 47.14108 | 124.07433 | 38153 ft | 380 kts | 310° |
| 2026-04-12 16:57 | 47.17829 | 124.01897 | 38157 ft | 381 kts | 310° |
| 2026-04-12 16:58 | 47.21554 | 123.96345 | 38158 ft | 381 kts | 310° |
| 2026-04-12 16:58 | 47.25120 | 123.90617 | 38159 ft | 378 kts | 303° |
| 2026-04-12 16:59 | 47.28207 | 123.84371 | 38158 ft | 377 kts | 302° |
| 2026-04-12 16:59 | 47.31299 | 123.78121 | 38162 ft | 378 kts | 302° |
| 2026-04-12 17:00 | 47.34386 | 123.71834 | 38155 ft | 378 kts | 302° |
| 2026-04-12 17:00 | 47.37471 | 123.65547 | 38159 ft | 378 kts | 302° |
| 2026-04-12 17:01 | 47.40535 | 123.59287 | 38155 ft | 379 kts | 302° |
| 2026-04-12 17:01 | 47.43619 | 123.52973 | 38156 ft | 379 kts | 302° |
| 2026-04-12 17:02 | 47.46699 | 123.46652 | 38152 ft | 379 kts | 302° |
| 2026-04-12 17:02 | 47.49774 | 123.40325 | 38154 ft | 379 kts | 302° |
| 2026-04-12 17:03 | 47.52849 | 123.33986 | 38166 ft | 379 kts | 302° |
| 2026-04-12 17:03 | 47.55925 | 123.27624 | 38167 ft | 380 kts | 302° |
| 2026-04-12 17:04 | 47.58997 | 123.21265 | 38171 ft | 380 kts | 301° |
| 2026-04-12 17:04 | 47.62071 | 123.14881 | 38161 ft | 380 kts | 301° |
| 2026-04-12 17:05 | 47.65117 | 123.08545 | 38171 ft | 380 kts | 301° |
| 2026-04-12 17:05 | 47.68078 | 123.02368 | 38165 ft | 380 kts | 301° |
| 2026-04-12 17:06 | 47.71137 | 122.95972 | 38174 ft | 380 kts | 301° |
| 2026-04-12 17:06 | 47.74198 | 122.89558 | 38173 ft | 380 kts | 301° |
| 2026-04-12 17:07 | 47.77252 | 122.83144 | 38174 ft | 380 kts | 301° |
| 2026-04-12 17:07 | 47.80308 | 122.76715 | 38173 ft | 380 kts | 301° |
| 2026-04-12 17:08 | 47.83465 | 122.70404 | 38181 ft | 380 kts | 302° |
| 2026-04-12 17:08 | 47.86079 | 122.65134 | 38172 ft | 380 kts | 302° |
| 2026-04-12 17:09 | 47.89216 | 122.58820 | 38177 ft | 380 kts | 302° |
| 2026-04-12 17:09 | 47.92358 | 122.52478 | 38180 ft | 379 kts | 302° |
| 2026-04-12 17:10 | 47.95493 | 122.46136 | 38180 ft | 380 kts | 302° |
| 2026-04-12 17:10 | 47.98628 | 122.39782 | 38185 ft | 379 kts | 302° |
| 2026-04-12 17:11 | 48.01731 | 122.33471 | 38182 ft | 379 kts | 301° |
| 2026-04-12 17:11 | 48.04846 | 122.27126 | 38186 ft | 379 kts | 302° |
| 2026-04-12 17:12 | 48.07956 | 122.20776 | 38198 ft | 378 kts | 301° |
| 2026-04-12 17:12 | 48.11058 | 122.14424 | 38198 ft | 378 kts | 301° |
| 2026-04-12 17:13 | 48.14158 | 122.08068 | 38206 ft | 378 kts | 301° |
| 2026-04-12 17:13 | 48.17254 | 122.01701 | 38212 ft | 378 kts | 301° |
| 2026-04-12 17:14 | 48.20347 | 121.95324 | 38207 ft | 378 kts | 301° |
| 2026-04-12 17:14 | 48.23435 | 121.88944 | 38215 ft | 378 kts | 301° |
| 2026-04-12 17:15 | 48.26520 | 121.82556 | 38216 ft | 378 kts | 301° |
| 2026-04-12 17:15 | 48.29602 | 121.76158 | 38220 ft | 378 kts | 301° |
| 2026-04-12 17:16 | 48.32681 | 121.69752 | 38223 ft | 378 kts | 301° |
| 2026-04-12 17:16 | 48.35753 | 121.63346 | 38354 ft | 378 kts | 301° |
| 2026-04-12 17:16 | 48.37294 | 121.60128 | 38236 ft | 379 kts | 301° |
| 2026-04-12 17:17 | 48.38828 | 121.56915 | 38241 ft | 377 kts | 300° |
| 2026-04-12 17:17 | 48.41880 | 121.50523 | 38235 ft | 375 kts | 300° |
| 2026-04-12 17:18 | 48.44911 | 121.44156 | 38241 ft | 373 kts | 300° |
| 2026-04-12 17:18 | 48.47904 | 121.37853 | 38241 ft | 372 kts | 300° |
| 2026-04-12 17:19 | 48.50908 | 121.31512 | 38252 ft | 371 kts | 300° |
| 2026-04-12 17:19 | 48.53904 | 121.25177 | 38254 ft | 371 kts | 300° |
| 2026-04-12 17:20 | 48.56894 | 121.18838 | 38261 ft | 370 kts | 300° |
| 2026-04-12 17:20 | 48.59875 | 121.12500 | 38255 ft | 370 kts | 300° |
| 2026-04-12 17:21 | 48.62849 | 121.06167 | 38263 ft | 369 kts | 300° |
| 2026-04-12 17:21 | 48.65816 | 120.99831 | 38263 ft | 369 kts | 300° |
| 2026-04-12 17:22 | 48.68775 | 120.93499 | 38268 ft | 369 kts | 300° |
| 2026-04-12 17:22 | 48.71711 | 120.87201 | 38277 ft | 368 kts | 300° |
| 2026-04-12 17:23 | 48.74668 | 120.80866 | 38278 ft | 368 kts | 301° |
| 2026-04-12 17:23 | 48.77654 | 120.74552 | 38278 ft | 369 kts | 300° |
| 2026-04-12 17:24 | 48.80624 | 120.68215 | 38283 ft | 368 kts | 300° |
| 2026-04-12 17:24 | 48.83595 | 120.61876 | 38280 ft | 368 kts | 300° |
| 2026-04-12 17:25 | 48.86556 | 120.55538 | 38280 ft | 368 kts | 300° |
| 2026-04-12 17:25 | 48.89518 | 120.49186 | 38278 ft | 368 kts | 300° |
| 2026-04-12 17:26 | 48.92383 | 120.43023 | 38282 ft | 368 kts | 300° |
| 2026-04-12 17:26 | 48.95311 | 120.36712 | 38284 ft | 368 kts | 300° |
| 2026-04-12 17:27 | 48.98253 | 120.30357 | 38287 ft | 367 kts | 300° |
| 2026-04-12 17:27 | 49.01192 | 120.23992 | 38283 ft | 367 kts | 300° |
| 2026-04-12 17:28 | 49.04123 | 120.17632 | 38288 ft | 366 kts | 300° |
| 2026-04-12 17:28 | 49.07047 | 120.11270 | 38282 ft | 366 kts | 300° |
| 2026-04-12 17:29 | 49.09963 | 120.04909 | 38288 ft | 366 kts | 300° |
| 2026-04-12 17:29 | 49.12873 | 119.98546 | 38287 ft | 366 kts | 300° |
| 2026-04-12 17:30 | 49.15784 | 119.92172 | 38288 ft | 365 kts | 300° |
| 2026-04-12 17:30 | 49.18304 | 119.85494 | 38291 ft | 361 kts | 291° |
| 2026-04-12 17:31 | 49.19994 | 119.78320 | 38289 ft | 358 kts | 283° |
| 2026-04-12 17:31 | 49.20835 | 119.70833 | 38291 ft | 357 kts | 275° |
| 2026-04-12 17:32 | 49.21158 | 119.63318 | 38293 ft | 356 kts | 274° |
| 2026-04-12 17:32 | 49.21491 | 119.55747 | 38290 ft | 356 kts | 274° |
| 2026-04-12 17:33 | 49.21807 | 119.48186 | 38297 ft | 356 kts | 274° |
| 2026-04-12 17:33 | 49.22121 | 119.40627 | 38291 ft | 356 kts | 274° |
| 2026-04-12 17:34 | 49.22429 | 119.33076 | 38296 ft | 356 kts | 274° |
| 2026-04-12 17:34 | 49.22733 | 119.25525 | 38299 ft | 355 kts | 274° |
| 2026-04-12 17:35 | 49.23032 | 119.17975 | 38297 ft | 355 kts | 274° |
| 2026-04-12 17:35 | 49.23326 | 119.10433 | 38303 ft | 355 kts | 274° |
| 2026-04-12 17:36 | 49.23613 | 119.02943 | 38299 ft | 355 kts | 273° |
| 2026-04-12 17:36 | 49.23891 | 118.95406 | 38302 ft | 355 kts | 273° |
| 2026-04-12 17:37 | 49.24160 | 118.87862 | 38302 ft | 355 kts | 273° |
| 2026-04-12 17:37 | 49.24426 | 118.80327 | 38302 ft | 354 kts | 273° |
| 2026-04-12 17:38 | 49.24687 | 118.72803 | 38305 ft | 354 kts | 273° |
| 2026-04-12 17:38 | 49.24942 | 118.65271 | 38304 ft | 354 kts | 273° |
| 2026-04-12 17:39 | 49.25193 | 118.57746 | 38301 ft | 354 kts | 273° |
| 2026-04-12 17:39 | 49.25439 | 118.50220 | 38304 ft | 354 kts | 273° |
| 2026-04-12 17:40 | 49.25679 | 118.42696 | 38304 ft | 354 kts | 273° |
| 2026-04-12 17:40 | 49.25914 | 118.35173 | 38304 ft | 354 kts | 272° |
| 2026-04-12 17:41 | 49.26144 | 118.27700 | 38300 ft | 354 kts | 272° |
| 2026-04-12 17:41 | 49.26465 | 118.20184 | 38305 ft | 354 kts | 277° |
| 2026-04-12 17:42 | 49.27501 | 118.12814 | 38306 ft | 356 kts | 284° |
| 2026-04-12 17:42 | 49.29346 | 118.05759 | 38313 ft | 359 kts | 292° |
| 2026-04-12 17:43 | 49.33512 | 117.96099 | 38315 ft | 365 kts | 301° |
| 2026-04-12 17:43 | 49.36554 | 117.89874 | 38315 ft | 365 kts | 301° |
| 2026-04-12 17:44 | 49.41121 | 117.80531 | 38316 ft | 365 kts | 301° |
| 2026-04-12 17:45 | 49.44166 | 117.74279 | 38317 ft | 365 kts | 301° |
| 2026-04-12 17:45 | 49.47206 | 117.68027 | 38325 ft | 365 kts | 301° |
| 2026-04-12 17:46 | 49.50222 | 117.61806 | 38322 ft | 365 kts | 301° |
| 2026-04-12 17:46 | 49.53260 | 117.55525 | 38327 ft | 366 kts | 301° |
| 2026-04-12 17:47 | 49.56294 | 117.49237 | 38325 ft | 366 kts | 301° |
| 2026-04-12 17:47 | 49.59483 | 117.43097 | 38329 ft | 370 kts | 306° |
| 2026-04-12 17:48 | 49.63107 | 117.37418 | 38325 ft | 375 kts | 311° |
| 2026-04-12 17:48 | 49.67222 | 117.32382 | 38333 ft | 378 kts | 314° |
| 2026-04-12 17:49 | 49.71365 | 117.27367 | 38325 ft | 379 kts | 314° |
| 2026-04-12 17:49 | 49.75522 | 117.22363 | 38326 ft | 379 kts | 314° |
| 2026-04-12 17:50 | 49.79670 | 117.17339 | 38325 ft | 379 kts | 314° |
| 2026-04-12 17:50 | 49.83830 | 117.12298 | 38325 ft | 379 kts | 314° |
| 2026-04-12 17:51 | 49.87991 | 117.07243 | 38325 ft | 380 kts | 314° |
| 2026-04-12 17:51 | 49.92153 | 117.02176 | 38324 ft | 380 kts | 314° |
| 2026-04-12 17:52 | 49.96317 | 116.97093 | 38322 ft | 381 kts | 314° |
| 2026-04-12 17:52 | 50.00458 | 116.92027 | 38322 ft | 381 kts | 315° |
| 2026-04-12 17:53 | 50.04629 | 116.86914 | 38325 ft | 382 kts | 315° |
| 2026-04-12 17:53 | 50.08804 | 116.81786 | 38320 ft | 382 kts | 315° |
| 2026-04-12 17:54 | 50.12976 | 116.76646 | 38318 ft | 382 kts | 315° |
| 2026-04-12 17:54 | 50.16445 | 116.72364 | 38319 ft | 382 kts | 315° |
| 2026-04-12 17:55 | 50.20617 | 116.67196 | 38319 ft | 383 kts | 315° |
| 2026-04-12 17:55 | 50.24644 | 116.62200 | 38315 ft | 384 kts | 315° |
| 2026-04-12 17:56 | 50.28822 | 116.57001 | 38313 ft | 384 kts | 315° |
| 2026-04-12 17:56 | 50.33000 | 116.51793 | 38314 ft | 384 kts | 315° |
| 2026-04-12 17:57 | 50.37054 | 116.46391 | 38316 ft | 380 kts | 309° |
| 2026-04-12 17:57 | 50.40371 | 116.40123 | 38313 ft | 373 kts | 300° |
| 2026-04-12 17:58 | 50.43151 | 116.33266 | 38311 ft | 373 kts | 298° |
| 2026-04-12 17:58 | 50.45928 | 116.26390 | 38311 ft | 373 kts | 298° |
| 2026-04-12 17:59 | 50.48694 | 116.19498 | 38310 ft | 373 kts | 298° |
| 2026-04-12 17:59 | 50.51460 | 116.12597 | 38313 ft | 373 kts | 298° |
| 2026-04-12 18:00 | 50.54225 | 116.05676 | 38313 ft | 374 kts | 298° |
| 2026-04-12 18:00 | 50.56986 | 115.98750 | 38312 ft | 374 kts | 298° |
| 2026-04-12 18:01 | 50.59665 | 115.91752 | 38309 ft | 373 kts | 296° |
| 2026-04-12 18:01 | 50.62302 | 115.84706 | 38317 ft | 373 kts | 296° |
| 2026-04-12 18:02 | 50.62970 | 115.82916 | 38312 ft | 373 kts | 296° |
| 2026-04-12 18:15 | 50.65471 | 115.76194 | 38297 ft | 366 kts | 296° |
| 2026-04-12 18:16 | 50.68029 | 115.69302 | 38301 ft | 368 kts | 296° |
| 2026-04-12 18:16 | 50.70618 | 115.62318 | 38307 ft | 369 kts | 296° |
| 2026-04-12 18:17 | 50.73208 | 115.55299 | 38300 ft | 370 kts | 296° |
| 2026-04-12 18:17 | 50.75801 | 115.48262 | 38302 ft | 371 kts | 296° |
| 2026-04-12 18:18 | 50.78392 | 115.41210 | 38305 ft | 372 kts | 296° |
| 2026-04-12 18:18 | 50.80983 | 115.34134 | 38304 ft | 372 kts | 296° |
| 2026-04-12 18:19 | 50.83574 | 115.27040 | 38296 ft | 373 kts | 296° |
| 2026-04-12 18:19 | 50.86171 | 115.19914 | 38288 ft | 373 kts | 296° |
| 2026-04-12 18:20 | 50.88761 | 115.12782 | 38281 ft | 374 kts | 296° |
| 2026-04-12 18:20 | 50.91349 | 115.05637 | 38278 ft | 374 kts | 296° |
| 2026-04-12 18:21 | 50.93915 | 114.98536 | 38272 ft | 374 kts | 296° |
| 2026-04-12 18:21 | 50.96497 | 114.91369 | 38273 ft | 374 kts | 296° |
| 2026-04-12 18:22 | 50.99073 | 114.84193 | 38269 ft | 374 kts | 296° |
| 2026-04-12 18:22 | 51.01648 | 114.77009 | 38268 ft | 374 kts | 296° |
| 2026-04-12 18:23 | 51.04220 | 114.69809 | 38239 ft | 375 kts | 296° |
| 2026-04-12 18:23 | 51.06791 | 114.62587 | 38233 ft | 376 kts | 296° |
| 2026-04-12 18:24 | 51.09586 | 114.55561 | 38235 ft | 379 kts | 303° |
| 2026-04-12 18:24 | 51.13201 | 114.49379 | 38239 ft | 385 kts | 313° |
| 2026-04-12 18:25 | 51.17362 | 114.43967 | 38240 ft | 386 kts | 315° |
| 2026-04-12 18:25 | 51.21520 | 114.38552 | 38241 ft | 386 kts | 315° |
| 2026-04-12 18:26 | 51.25691 | 114.33141 | 38247 ft | 386 kts | 315° |
| 2026-04-12 18:26 | 51.29823 | 114.27751 | 38241 ft | 386 kts | 315° |
| 2026-04-12 18:27 | 51.33985 | 114.22321 | 38241 ft | 386 kts | 315° |
| 2026-04-12 18:27 | 51.38139 | 114.16881 | 38231 ft | 385 kts | 315° |
| 2026-04-12 18:28 | 51.42291 | 114.11432 | 38227 ft | 385 kts | 315° |
| 2026-04-12 18:28 | 51.46444 | 114.05968 | 38219 ft | 386 kts | 315° |
| 2026-04-12 18:29 | 51.50588 | 114.00504 | 38223 ft | 386 kts | 315° |
| 2026-04-12 18:29 | 51.54705 | 113.95062 | 38217 ft | 385 kts | 315° |
| 2026-04-12 18:30 | 51.58843 | 113.89577 | 38216 ft | 385 kts | 315° |
| 2026-04-12 18:30 | 51.62977 | 113.84084 | 38210 ft | 385 kts | 315° |
| 2026-04-12 18:31 | 51.67097 | 113.78575 | 38205 ft | 385 kts | 315° |
| 2026-04-12 18:31 | 51.71220 | 113.73057 | 38207 ft | 385 kts | 315° |
| 2026-04-12 18:32 | 51.75342 | 113.67520 | 38200 ft | 385 kts | 315° |
| 2026-04-12 18:32 | 51.79455 | 113.61986 | 38188 ft | 385 kts | 315° |
| 2026-04-12 18:33 | 51.83567 | 113.56438 | 38180 ft | 385 kts | 315° |
| 2026-04-12 18:33 | 51.87676 | 113.50881 | 38175 ft | 385 kts | 315° |
| 2026-04-12 18:34 | 51.91755 | 113.45353 | 38171 ft | 385 kts | 315° |
| 2026-04-12 18:34 | 51.95861 | 113.39772 | 38162 ft | 385 kts | 315° |
| 2026-04-12 18:35 | 51.99967 | 113.34178 | 38163 ft | 386 kts | 315° |
| 2026-04-12 18:35 | 52.04454 | 113.29282 | 38167 ft | 393 kts | 326° |
| 2026-04-12 18:36 | 52.08558 | 113.26064 | 38167 ft | 394 kts | 328° |
| 2026-04-12 18:36 | 52.09395 | 113.25413 | 38165 ft | 394 kts | 328° |
| 2026-04-12 18:37 | 52.19295 | 113.17685 | 38174 ft | 395 kts | 328° |
| 2026-04-12 18:37 | 52.24247 | 113.13806 | 38173 ft | 395 kts | 328° |
| 2026-04-12 18:38 | 52.29197 | 113.09923 | 38185 ft | 395 kts | 328° |
| 2026-04-12 18:38 | 52.34110 | 113.06058 | 38193 ft | 394 kts | 328° |
| 2026-04-12 18:39 | 52.39049 | 113.02165 | 38202 ft | 394 kts | 328° |
| 2026-04-12 18:39 | 52.43983 | 112.98264 | 38198 ft | 394 kts | 328° |
| 2026-04-12 18:40 | 52.48913 | 112.94356 | 38211 ft | 394 kts | 328° |
| 2026-04-12 18:40 | 52.53848 | 112.90428 | 38214 ft | 393 kts | 328° |
| 2026-04-12 18:41 | 52.58764 | 112.86472 | 38220 ft | 393 kts | 328° |
| 2026-04-12 18:41 | 52.63684 | 112.82519 | 38226 ft | 393 kts | 328° |
| 2026-04-12 18:42 | 52.68594 | 112.78554 | 38227 ft | 393 kts | 328° |
| 2026-04-12 18:42 | 52.73506 | 112.74581 | 38232 ft | 393 kts | 328° |
| 2026-04-12 18:43 | 52.83293 | 112.66635 | 38240 ft | 393 kts | 328° |
| 2026-04-12 18:44 | 52.88198 | 112.62639 | 38245 ft | 393 kts | 328° |
| 2026-04-12 18:44 | 52.93103 | 112.58631 | 38245 ft | 393 kts | 328° |
| 2026-04-12 18:45 | 52.98003 | 112.54617 | 38254 ft | 393 kts | 328° |
| 2026-04-12 18:45 | 53.02902 | 112.50600 | 38257 ft | 393 kts | 328° |
| 2026-04-12 18:46 | 53.06981 | 112.47257 | 38258 ft | 393 kts | 328° |
| 2026-04-12 18:46 | 53.11885 | 112.43221 | 38267 ft | 393 kts | 328° |
| 2026-04-12 18:47 | 53.16789 | 112.39177 | 38269 ft | 393 kts | 328° |
| 2026-04-12 18:47 | 53.21692 | 112.35124 | 38273 ft | 393 kts | 328° |
| 2026-04-12 18:48 | 53.26595 | 112.31060 | 38275 ft | 393 kts | 328° |
| 2026-04-12 18:48 | 53.31501 | 112.26983 | 38282 ft | 394 kts | 328° |
| 2026-04-12 18:49 | 53.36405 | 112.22898 | 38289 ft | 394 kts | 328° |
| 2026-04-12 18:49 | 53.41314 | 112.18797 | 38292 ft | 394 kts | 328° |
| 2026-04-12 18:50 | 53.46225 | 112.14685 | 38295 ft | 394 kts | 328° |
| 2026-04-12 18:50 | 53.51131 | 112.10564 | 38303 ft | 395 kts | 328° |
| 2026-04-12 18:51 | 53.56044 | 112.06430 | 38309 ft | 395 kts | 328° |
| 2026-04-12 18:51 | 53.60949 | 112.02289 | 38314 ft | 395 kts | 328° |
| 2026-04-12 18:52 | 53.65889 | 111.98213 | 38319 ft | 396 kts | 329° |
| 2026-04-12 18:52 | 53.70804 | 111.94180 | 38328 ft | 395 kts | 329° |
| 2026-04-12 18:53 | 53.75772 | 111.90063 | 38331 ft | 395 kts | 329° |
| 2026-04-12 18:53 | 53.80710 | 111.85980 | 38346 ft | 395 kts | 329° |
| 2026-04-12 18:54 | 53.85620 | 111.81900 | 38346 ft | 395 kts | 329° |
| 2026-04-12 18:54 | 53.90559 | 111.77789 | 38347 ft | 395 kts | 329° |
| 2026-04-12 18:55 | 53.95501 | 111.73661 | 38355 ft | 395 kts | 329° |
| 2026-04-12 18:55 | 54.00437 | 111.69532 | 38357 ft | 395 kts | 329° |
| 2026-04-12 18:56 | 54.05370 | 111.65390 | 38362 ft | 396 kts | 329° |
| 2026-04-12 18:56 | 54.10309 | 111.61235 | 38367 ft | 396 kts | 329° |
| 2026-04-12 18:57 | 54.15138 | 111.57161 | 38362 ft | 396 kts | 329° |
| 2026-04-12 18:57 | 54.20071 | 111.52986 | 38361 ft | 396 kts | 329° |
| 2026-04-12 18:58 | 54.25007 | 111.48798 | 38360 ft | 396 kts | 329° |
| 2026-04-12 18:58 | 54.29940 | 111.44605 | 38362 ft | 396 kts | 329° |
| 2026-04-12 18:59 | 54.34867 | 111.40398 | 38358 ft | 396 kts | 329° |
| 2026-04-12 18:59 | 54.39797 | 111.36185 | 38356 ft | 396 kts | 329° |
| 2026-04-12 19:00 | 54.44706 | 111.31976 | 38360 ft | 396 kts | 328° |
| 2026-04-12 19:00 | 54.49634 | 111.27738 | 38359 ft | 396 kts | 329° |
| 2026-04-12 19:01 | 54.54565 | 111.23488 | 38357 ft | 396 kts | 328° |
| 2026-04-12 19:01 | 54.59496 | 111.19226 | 38354 ft | 396 kts | 328° |
| 2026-04-12 19:02 | 54.64434 | 111.14944 | 38353 ft | 396 kts | 328° |
| 2026-04-12 19:02 | 54.69365 | 111.10660 | 38349 ft | 397 kts | 328° |
| 2026-04-12 19:03 | 54.74293 | 111.06364 | 38350 ft | 396 kts | 328° |
| 2026-04-12 19:03 | 54.79220 | 111.02057 | 38344 ft | 397 kts | 328° |
| 2026-04-12 19:04 | 54.84148 | 110.97738 | 38344 ft | 397 kts | 328° |
| 2026-04-12 19:04 | 54.89065 | 110.93417 | 38345 ft | 396 kts | 328° |
| 2026-04-12 19:05 | 54.93948 | 110.89115 | 38348 ft | 396 kts | 328° |
| 2026-04-12 19:05 | 54.98874 | 110.84763 | 38352 ft | 397 kts | 328° |
| 2026-04-12 19:06 | 55.03797 | 110.80398 | 38343 ft | 397 kts | 328° |
| 2026-04-12 19:06 | 55.08729 | 110.76016 | 38330 ft | 398 kts | 328° |
| 2026-04-12 19:07 | 55.13666 | 110.71620 | 38336 ft | 398 kts | 328° |
| 2026-04-12 19:07 | 55.18592 | 110.67214 | 38332 ft | 398 kts | 328° |
| 2026-04-12 19:08 | 55.23516 | 110.62806 | 38340 ft | 398 kts | 328° |
| 2026-04-12 19:08 | 55.28441 | 110.58379 | 38337 ft | 398 kts | 328° |
| 2026-04-12 19:09 | 55.33332 | 110.53971 | 38335 ft | 398 kts | 328° |
| 2026-04-12 19:09 | 55.38260 | 110.49521 | 38341 ft | 398 kts | 328° |
| 2026-04-12 19:10 | 55.43182 | 110.45058 | 38332 ft | 398 kts | 328° |
| 2026-04-12 19:10 | 55.48101 | 110.40589 | 38324 ft | 398 kts | 328° |
| 2026-04-12 19:11 | 55.53017 | 110.36109 | 38323 ft | 397 kts | 328° |
| 2026-04-12 19:11 | 55.57927 | 110.31622 | 38327 ft | 397 kts | 328° |
| 2026-04-12 19:12 | 55.62833 | 110.27125 | 38321 ft | 397 kts | 328° |
| 2026-04-12 19:12 | 55.67699 | 110.22486 | 38318 ft | 396 kts | 327° |
| 2026-04-12 19:13 | 55.72543 | 110.17777 | 38319 ft | 398 kts | 327° |
| 2026-04-12 19:13 | 55.77397 | 110.13045 | 38318 ft | 398 kts | 327° |
| 2026-04-12 19:14 | 55.82253 | 110.08294 | 38316 ft | 398 kts | 327° |
| 2026-04-12 19:14 | 55.87109 | 110.03533 | 38313 ft | 398 kts | 327° |
| 2026-04-12 19:15 | 55.91905 | 109.98610 | 38312 ft | 396 kts | 322° |
| 2026-04-12 19:15 | 55.96049 | 109.92348 | 38305 ft | 391 kts | 311° |
| 2026-04-12 19:16 | 55.99338 | 109.84706 | 38310 ft | 388 kts | 300° |
| 2026-04-12 19:16 | 56.01643 | 109.76031 | 38308 ft | 387 kts | 289° |
| 2026-04-12 19:17 | 56.02882 | 109.66682 | 38307 ft | 387 kts | 278° |
| 2026-04-12 19:17 | 56.03598 | 109.57141 | 38303 ft | 387 kts | 278° |
| 2026-04-12 19:18 | 56.04312 | 109.47610 | 38298 ft | 387 kts | 278° |
| 2026-04-12 19:18 | 56.05015 | 109.38069 | 38295 ft | 387 kts | 278° |
| 2026-04-12 19:19 | 56.05713 | 109.28520 | 38291 ft | 387 kts | 278° |
| 2026-04-12 19:19 | 56.06400 | 109.18982 | 38285 ft | 387 kts | 278° |
| 2026-04-12 19:20 | 56.07083 | 109.09422 | 38280 ft | 387 kts | 278° |
| 2026-04-12 19:20 | 56.07756 | 108.99866 | 38271 ft | 387 kts | 278° |
| 2026-04-12 19:21 | 56.08424 | 108.90315 | 38264 ft | 387 kts | 278° |
| 2026-04-12 19:21 | 56.09080 | 108.80807 | 38254 ft | 387 kts | 278° |
| 2026-04-12 19:22 | 56.09733 | 108.71243 | 38245 ft | 387 kts | 278° |
| 2026-04-12 19:22 | 56.10378 | 108.61683 | 38232 ft | 386 kts | 278° |
| 2026-04-12 19:23 | 56.11015 | 108.52132 | 38226 ft | 386 kts | 278° |
| 2026-04-12 19:23 | 56.11643 | 108.42583 | 38215 ft | 386 kts | 277° |
| 2026-04-12 19:24 | 56.12265 | 108.33035 | 38207 ft | 386 kts | 277° |
| 2026-04-12 19:24 | 56.12880 | 108.23483 | 38201 ft | 386 kts | 277° |
| 2026-04-12 19:25 | 56.13486 | 108.13922 | 38115 ft | 386 kts | 277° |
| 2026-04-12 19:25 | 56.13783 | 108.09197 | 37641 ft | 376 kts | 277° |
| 2026-04-12 19:25 | 56.14070 | 108.04601 | 37158 ft | 367 kts | 277° |
| 2026-04-12 19:25 | 56.14349 | 108.00107 | 36682 ft | 359 kts | 277° |
| 2026-04-12 19:26 | 56.14622 | 107.95705 | 36212 ft | 352 kts | 278° |
| 2026-04-12 19:26 | 56.14883 | 107.91432 | 35763 ft | 346 kts | 278° |
| 2026-04-12 19:26 | 56.15144 | 107.87184 | 35310 ft | 340 kts | 278° |
| 2026-04-12 19:26 | 56.15397 | 107.82997 | 34862 ft | 335 kts | 278° |
| 2026-04-12 19:27 | 56.15646 | 107.78879 | 34423 ft | 330 kts | 278° |
| 2026-04-12 19:27 | 56.15890 | 107.74811 | 33961 ft | 326 kts | 278° |
| 2026-04-12 19:27 | 56.16130 | 107.70804 | 33523 ft | 320 kts | 278° |
| 2026-04-12 19:27 | 56.16364 | 107.66871 | 33107 ft | 314 kts | 278° |
| 2026-04-12 19:28 | 56.16591 | 107.63001 | 32694 ft | 309 kts | 278° |
| 2026-04-12 19:28 | 56.16816 | 107.59192 | 32292 ft | 305 kts | 278° |
| 2026-04-12 19:28 | 56.17036 | 107.55434 | 31891 ft | 301 kts | 278° |
| 2026-04-12 19:28 | 56.17251 | 107.51723 | 31498 ft | 297 kts | 278° |
| 2026-04-12 19:29 | 56.17463 | 107.48051 | 31105 ft | 294 kts | 278° |
| 2026-04-12 19:29 | 56.17672 | 107.44428 | 30720 ft | 291 kts | 278° |
| 2026-04-12 19:29 | 56.17876 | 107.40834 | 30347 ft | 288 kts | 278° |
| 2026-04-12 19:29 | 56.18079 | 107.37279 | 29924 ft | 284 kts | 277° |
| 2026-04-12 19:30 | 56.18278 | 107.33783 | 29553 ft | 280 kts | 277° |
| 2026-04-12 19:30 | 56.18472 | 107.30328 | 29182 ft | 277 kts | 277° |
| 2026-04-12 19:30 | 56.18663 | 107.26916 | 28825 ft | 273 kts | 277° |
| 2026-04-12 19:30 | 56.18851 | 107.23572 | 28466 ft | 271 kts | 277° |
| 2026-04-12 19:31 | 56.19035 | 107.20216 | 28116 ft | 270 kts | 277° |
| 2026-04-12 19:31 | 56.19293 | 107.16888 | 27757 ft | 268 kts | 282° |
| 2026-04-12 19:31 | 56.19751 | 107.13649 | 27400 ft | 267 kts | 287° |
| 2026-04-12 19:31 | 56.20405 | 107.10522 | 27051 ft | 267 kts | 291° |
| 2026-04-12 19:32 | 56.20943 | 107.08532 | 26813 ft | 268 kts | 295° |
| 2026-04-12 19:32 | 56.21903 | 107.05657 | 26462 ft | 269 kts | 300° |
| 2026-04-12 19:32 | 56.23038 | 107.02964 | 26110 ft | 271 kts | 304° |
| 2026-04-12 19:32 | 56.24224 | 107.00325 | 25750 ft | 272 kts | 304° |
| 2026-04-12 19:33 | 56.25408 | 106.97664 | 25389 ft | 273 kts | 304° |
| 2026-04-12 19:33 | 56.26596 | 106.94985 | 25028 ft | 274 kts | 304° |
| 2026-04-12 19:33 | 56.27939 | 106.92506 | 24661 ft | 282 kts | 316° |
| 2026-04-12 19:33 | 56.29535 | 106.90425 | 24305 ft | 283 kts | 316° |
| 2026-04-12 19:34 | 56.31117 | 106.88303 | 23965 ft | 285 kts | 317° |
| 2026-04-12 19:34 | 56.32719 | 106.86189 | 23612 ft | 286 kts | 317° |
| 2026-04-12 19:34 | 56.34330 | 106.84080 | 23219 ft | 286 kts | 317° |
| 2026-04-12 19:34 | 56.35940 | 106.81951 | 22843 ft | 287 kts | 317° |
| 2026-04-12 19:35 | 56.37551 | 106.79821 | 22457 ft | 287 kts | 317° |
| 2026-04-12 19:35 | 56.39167 | 106.77682 | 22060 ft | 288 kts | 317° |
| 2026-04-12 19:35 | 56.40781 | 106.75539 | 21691 ft | 289 kts | 317° |
| 2026-04-12 19:35 | 56.42404 | 106.73393 | 21326 ft | 289 kts | 317° |
| 2026-04-12 19:36 | 56.44029 | 106.71230 | 20972 ft | 290 kts | 318° |
| 2026-04-12 19:36 | 56.45699 | 106.69000 | 20766 ft | 316 kts | 318° |
| 2026-04-12 19:36 | 56.47472 | 106.66642 | 20697 ft | 311 kts | 319° |
| 2026-04-12 19:36 | 56.49188 | 106.64379 | 20603 ft | 299 kts | 318° |
| 2026-04-12 19:37 | 56.50840 | 106.62182 | 20500 ft | 291 kts | 318° |
| 2026-04-12 19:37 | 56.52442 | 106.60026 | 20391 ft | 284 kts | 317° |
| 2026-04-12 19:37 | 56.54022 | 106.57915 | 20269 ft | 280 kts | 317° |
| 2026-04-12 19:37 | 56.55580 | 106.55829 | 20141 ft | 277 kts | 318° |
| 2026-04-12 19:38 | 56.57124 | 106.53762 | 20000 ft | 275 kts | 317° |
| 2026-04-12 19:38 | 56.58642 | 106.51681 | 19865 ft | 273 kts | 317° |
| 2026-04-12 19:38 | 56.60169 | 106.49634 | 19792 ft | 271 kts | 317° |
| 2026-04-12 19:38 | 56.61680 | 106.47624 | 19739 ft | 268 kts | 318° |
| 2026-04-12 19:39 | 56.63176 | 106.45620 | 19695 ft | 265 kts | 316° |
| 2026-04-12 19:39 | 56.64370 | 106.43179 | 19628 ft | 256 kts | 298° |
| 2026-04-12 19:39 | 56.65230 | 106.40369 | 19536 ft | 253 kts | 295° |
| 2026-04-12 19:39 | 56.66059 | 106.37551 | 19494 ft | 252 kts | 294° |
| 2026-04-12 19:40 | 56.66892 | 106.34708 | 19456 ft | 259 kts | 295° |
| 2026-04-12 19:40 | 56.67752 | 106.31788 | 19469 ft | 264 kts | 295° |
| 2026-04-12 19:40 | 56.68631 | 106.28829 | 19486 ft | 267 kts | 295° |
| 2026-04-12 19:40 | 56.69514 | 106.25833 | 19502 ft | 270 kts | 295° |
| 2026-04-12 19:41 | 56.70405 | 106.22807 | 19530 ft | 272 kts | 295° |
| 2026-04-12 19:41 | 56.71299 | 106.19764 | 19571 ft | 273 kts | 295° |
| 2026-04-12 19:41 | 56.72220 | 106.16730 | 19590 ft | 275 kts | 297° |
| 2026-04-12 19:41 | 56.73168 | 106.13750 | 19629 ft | 275 kts | 296° |
| 2026-04-12 19:42 | 56.74386 | 106.10979 | 19638 ft | 285 kts | 316° |
| 2026-04-12 19:42 | 56.76005 | 106.08953 | 19684 ft | 288 kts | 321° |
| 2026-04-12 19:42 | 56.77720 | 106.07030 | 19563 ft | 293 kts | 323° |
| 2026-04-12 19:43 | 56.81301 | 106.03149 | 18749 ft | 301 kts | 324° |
| 2026-04-12 19:43 | 56.83103 | 106.01193 | 18363 ft | 302 kts | 324° |
| 2026-04-12 19:43 | 56.84914 | 105.99229 | 17939 ft | 303 kts | 324° |
| 2026-04-12 19:43 | 56.86726 | 105.97262 | 17512 ft | 303 kts | 324° |
| 2026-04-12 19:44 | 56.88531 | 105.95291 | 17079 ft | 303 kts | 324° |
| 2026-04-12 19:44 | 56.90339 | 105.93317 | 16668 ft | 302 kts | 324° |
| 2026-04-12 19:44 | 56.92144 | 105.91338 | 16141 ft | 304 kts | 324° |
| 2026-04-12 19:44 | 56.93955 | 105.89304 | 15606 ft | 306 kts | 321° |
| 2026-04-12 19:45 | 56.95637 | 105.86939 | 15074 ft | 304 kts | 315° |
| 2026-04-12 19:45 | 56.97212 | 105.84345 | 14549 ft | 302 kts | 313° |
| 2026-04-12 19:45 | 56.98711 | 105.81771 | 14050 ft | 290 kts | 312° |
| 2026-04-12 19:45 | 57.00142 | 105.79254 | 13525 ft | 280 kts | 309° |
| 2026-04-12 19:46 | 57.01359 | 105.76531 | 13000 ft | 272 kts | 303° |
| 2026-04-12 19:46 | 57.02485 | 105.73786 | 12442 ft | 267 kts | 302° |
| 2026-04-12 19:46 | 57.03575 | 105.71046 | 11933 ft | 264 kts | 302° |
| 2026-04-12 19:46 | 57.04654 | 105.68327 | 11415 ft | 262 kts | 302° |
| 2026-04-12 19:47 | 57.05709 | 105.65662 | 10914 ft | 261 kts | 302° |
| 2026-04-12 19:47 | 57.06770 | 105.62973 | 10417 ft | 259 kts | 302° |
| 2026-04-12 19:47 | 57.07821 | 105.60310 | 9919 ft | 254 kts | 302° |
| 2026-04-12 19:47 | 57.08848 | 105.57716 | 9397 ft | 248 kts | 302° |
| 2026-04-12 19:48 | 57.09853 | 105.55177 | 8869 ft | 243 kts | 302° |
| 2026-04-12 19:48 | 57.10825 | 105.52658 | 8368 ft | 238 kts | 296° |
| 2026-04-12 19:48 | 57.11091 | 105.49808 | 8014 ft | 222 kts | 260° |
| 2026-04-12 19:48 | 57.10741 | 105.47168 | 7942 ft | 205 kts | 245° |
| 2026-04-12 19:49 | 57.09964 | 105.45058 | 7849 ft | 196 kts | 229° |
| 2026-04-12 19:49 | 57.08892 | 105.43550 | 7748 ft | 197 kts | 213° |
| 2026-04-12 19:49 | 57.07703 | 105.42250 | 7668 ft | 200 kts | 214° |
| 2026-04-12 19:49 | 57.06510 | 105.40907 | 7592 ft | 202 kts | 215° |
| 2026-04-12 19:50 | 57.05321 | 105.39529 | 7529 ft | 203 kts | 215° |
| 2026-04-12 19:50 | 57.04120 | 105.38140 | 7461 ft | 204 kts | 215° |
| 2026-04-12 19:50 | 57.02934 | 105.36774 | 7412 ft | 204 kts | 215° |
| 2026-04-12 19:50 | 57.01731 | 105.35385 | 7352 ft | 204 kts | 215° |
| 2026-04-12 19:51 | 57.00525 | 105.33999 | 7336 ft | 204 kts | 215° |
| 2026-04-12 19:51 | 56.99197 | 105.33055 | 7326 ft | 211 kts | 192° |
| 2026-04-12 19:51 | 56.97716 | 105.33270 | 7317 ft | 221 kts | 168° |
| 2026-04-12 19:51 | 56.96369 | 105.34787 | 7120 ft | 240 kts | 140° |
| 2026-04-12 19:52 | 56.95457 | 105.37467 | 6876 ft | 254 kts | 121° |
| 2026-04-12 19:52 | 56.94664 | 105.40419 | 6461 ft | 265 kts | 120° |
| 2026-04-12 19:52 | 56.93885 | 105.43426 | 5911 ft | 255 kts | 121° |
| 2026-04-12 19:52 | 56.93129 | 105.46242 | 5264 ft | 231 kts | 122° |
| 2026-04-12 19:53 | 56.92451 | 105.48730 | 4653 ft | 206 kts | 124° |
| 2026-04-12 19:53 | 56.91835 | 105.50968 | 4241 ft | 189 kts | 124° |
| 2026-04-12 19:53 | 56.91301 | 105.52941 | 3967 ft | 156 kts | 125° |
| 2026-04-12 19:53 | 56.90875 | 105.54510 | 3783 ft | 125 kts | 127° |
| 2026-04-12 19:54 | 56.90506 | 105.55837 | 3621 ft | 114 kts | 129° |
| 2026-04-12 19:54 | 56.90174 | 105.57055 | 3469 ft | 102 kts | 129° |
| 2026-04-12 19:54 | 56.89867 | 105.58163 | 3401 ft | 92 kts | 130° |
| 2026-04-12 19:54 | 56.89556 | 105.59253 | 3414 ft | 105 kts | 129° |
| 2026-04-12 19:55 | 56.89210 | 105.60522 | 3426 ft | 116 kts | 128° |
| 2026-04-12 19:55 | 56.88833 | 105.61870 | 3300 ft | 123 kts | 126° |
| 2026-04-12 19:55 | 56.88468 | 105.63244 | 3085 ft | 114 kts | 124° |
| 2026-04-12 19:55 | 56.88175 | 105.64496 | 3029 ft | 103 kts | 124° |
| 2026-04-12 19:56 | 56.87858 | 105.65682 | 2878 ft | 104 kts | 125° |
| 2026-04-12 19:56 | 56.87525 | 105.66831 | 2769 ft | 102 kts | 124° |
| 2026-04-12 19:56 | 56.87183 | 105.67976 | 2683 ft | 101 kts | 122° |
| 2026-04-12 19:56 | 56.86861 | 105.69118 | 2579 ft | 98 kts | 122° |
| 2026-04-12 19:57 | 56.86547 | 105.70240 | 2440 ft | 100 kts | 117° |
| 2026-04-12 19:57 | 56.86247 | 105.71358 | 2302 ft | 95 kts | 117° |
| 2026-04-12 19:57 | 56.85999 | 105.72245 | 2266 ft | 57 kts | 117° |
| 2026-04-12 19:57 | 56.85848 | 105.72769 | 2261 ft | 25 kts | 117° |
| 2026-04-12 19:58 | 56.85805 | 105.72925 | 2263 ft | 14 kts | 116° |
| 2026-04-12 19:58 | 56.85761 | 105.73097 | 2262 ft | 11 kts | 114° |
| 2026-04-12 19:58 | 56.85695 | 105.73143 | 2263 ft | 12 kts | 204° |
| 2026-04-12 19:58 | 56.85618 | 105.73074 | 2265 ft | 13 kts | 207° |
| 2026-04-12 19:59 | 56.85566 | 105.72959 | 2263 ft | 12 kts | 293° |
| 2026-04-12 19:59 | 56.85606 | 105.72811 | 2266 ft | 14 kts | 297° |
| 2026-04-12 19:59 | 56.85651 | 105.72646 | 2267 ft | 15 kts | 296° |
| 2026-04-12 19:59 | 56.85701 | 105.72466 | 2265 ft | 16 kts | 296° |
| 2026-04-12 20:00 | 56.85741 | 105.72319 | 2266 ft | 13 kts | 296° |
| 2026-04-12 20:00 | 56.85771 | 105.72207 | 2266 ft | 5 kts | 296° |
| 2026-04-12 20:00 | 56.85790 | 105.72131 | 2268 ft | 8 kts | 284° |
| 2026-04-12 20:00 | 56.85779 | 105.72028 | 2268 ft | 9 kts | 262° |
| 2026-04-12 20:01 | 56.85791 | 105.71913 | 2268 ft | 8 kts | 288° |
| 2026-04-12 20:01 | 56.85828 | 105.71846 | 2271 ft | 8 kts | 15° |
| 2026-04-12 20:01 | 56.85847 | 105.71860 | 2266 ft | 0 kts | 24° |